sensor_id;sensor_type;location;lat;lon;timestamp;P1;durP1;ratioP1;P2;durP2;ratioP2
11854;SDS011;5987;53.140;8.904;2023-08-20T00:02:36;10.90;;;4.90;;
11854;SDS011;5987;53.140;8.904;2023-08-20T00:05:44;9.97;;;4.70;;
11854;SDS011;5987;53.140;8.904;2023-08-20T00:08:48;9.30;;;4.60;;
11854;SDS011;5987;53.140;8.904;2023-08-20T00:11:53;6.07;;;4.00;;
11854;SDS011;5987;53.140;8.904;2023-08-20T00:14:58;5.37;;;3.53;;
11854;SDS011;5987;53.140;8.904;2023-08-20T00:18:09;7.40;;;4.03;;
11854;SDS011;5987;53.140;8.904;2023-08-20T00:21:14;6.17;;;3.83;;
11854;SDS011;5987;53.140;8.904;2023-08-20T00:24:18;9.47;;;3.80;;
11854;SDS011;5987;53.140;8.904;2023-08-20T00:27:22;12.67;;;4.50;;
11854;SDS011;5987;53.140;8.904;2023-08-20T00:30:26;7.90;;;3.93;;
11854;SDS011;5987;53.140;8.904;2023-08-20T00:33:32;5.43;;;3.73;;
11854;SDS011;5987;53.140;8.904;2023-08-20T00:36:35;8.53;;;4.77;;
11854;SDS011;5987;53.140;8.904;2023-08-20T00:39:39;6.50;;;4.03;;
11854;SDS011;5987;53.140;8.904;2023-08-20T00:42:43;5.47;;;3.93;;
11854;SDS011;5987;53.140;8.904;2023-08-20T00:45:47;7.13;;;3.87;;
11854;SDS011;5987;53.140;8.904;2023-08-20T00:48:52;7.83;;;3.80;;
11854;SDS011;5987;53.140;8.904;2023-08-20T00:51:56;6.00;;;3.60;;
11854;SDS011;5987;53.140;8.904;2023-08-20T00:55:02;5.80;;;3.87;;
11854;SDS011;5987;53.140;8.904;2023-08-20T00:58:12;5.80;;;4.27;;
11854;SDS011;5987;53.140;8.904;2023-08-20T01:01:16;7.77;;;4.67;;
11854;SDS011;5987;53.140;8.904;2023-08-20T01:04:21;6.80;;;4.37;;
11854;SDS011;5987;53.140;8.904;2023-08-20T01:07:28;7.47;;;4.33;;
11854;SDS011;5987;53.140;8.904;2023-08-20T01:10:43;10.93;;;5.30;;
11854;SDS011;5987;53.140;8.904;2023-08-20T01:13:57;6.67;;;5.10;;
11854;SDS011;5987;53.140;8.904;2023-08-20T01:17:02;7.10;;;5.17;;
11854;SDS011;5987;53.140;8.904;2023-08-20T01:20:08;8.30;;;4.40;;
11854;SDS011;5987;53.140;8.904;2023-08-20T01:27:19;9.53;;;5.63;;
11854;SDS011;5987;53.140;8.904;2023-08-20T01:30:43;7.87;;;4.73;;
11854;SDS011;5987;53.140;8.904;2023-08-20T01:33:49;5.77;;;4.30;;
11854;SDS011;5987;53.140;8.904;2023-08-20T01:36:57;6.53;;;5.10;;
11854;SDS011;5987;53.140;8.904;2023-08-20T01:40:01;6.37;;;4.80;;
11854;SDS011;5987;53.140;8.904;2023-08-20T01:43:08;6.63;;;3.97;;
11854;SDS011;5987;53.140;8.904;2023-08-20T01:46:14;4.90;;;3.53;;
11854;SDS011;5987;53.140;8.904;2023-08-20T01:49:17;4.43;;;3.70;;
11854;SDS011;5987;53.140;8.904;2023-08-20T01:52:21;4.77;;;3.47;;
11854;SDS011;5987;53.140;8.904;2023-08-20T01:55:25;3.77;;;3.30;;
11854;SDS011;5987;53.140;8.904;2023-08-20T01:58:32;6.97;;;3.70;;
11854;SDS011;5987;53.140;8.904;2023-08-20T02:01:37;5.93;;;4.00;;
11854;SDS011;5987;53.140;8.904;2023-08-20T02:04:41;4.00;;;3.60;;
11854;SDS011;5987;53.140;8.904;2023-08-20T02:07:45;5.93;;;3.53;;
11854;SDS011;5987;53.140;8.904;2023-08-20T02:10:48;4.50;;;3.13;;
11854;SDS011;5987;53.140;8.904;2023-08-20T02:13:52;4.23;;;3.67;;
11854;SDS011;5987;53.140;8.904;2023-08-20T02:16:57;6.17;;;3.73;;
11854;SDS011;5987;53.140;8.904;2023-08-20T02:20:01;4.20;;;3.77;;
11854;SDS011;5987;53.140;8.904;2023-08-20T02:23:06;6.03;;;3.53;;
11854;SDS011;5987;53.140;8.904;2023-08-20T02:26:10;3.70;;;3.30;;
11854;SDS011;5987;53.140;8.904;2023-08-20T02:29:13;4.17;;;3.20;;
11854;SDS011;5987;53.140;8.904;2023-08-20T02:32:18;6.27;;;3.70;;
11854;SDS011;5987;53.140;8.904;2023-08-20T02:35:22;5.87;;;4.03;;
11854;SDS011;5987;53.140;8.904;2023-08-20T02:38:26;3.00;;;2.70;;
11854;SDS011;5987;53.140;8.904;2023-08-20T02:41:29;5.50;;;3.10;;
11854;SDS011;5987;53.140;8.904;2023-08-20T02:44:33;4.43;;;3.13;;
11854;SDS011;5987;53.140;8.904;2023-08-20T02:47:38;4.13;;;3.23;;
11854;SDS011;5987;53.140;8.904;2023-08-20T02:50:42;3.50;;;2.53;;
11854;SDS011;5987;53.140;8.904;2023-08-20T02:53:46;2.60;;;2.40;;
11854;SDS011;5987;53.140;8.904;2023-08-20T02:56:50;4.30;;;2.50;;
11854;SDS011;5987;53.140;8.904;2023-08-20T02:59:53;4.17;;;2.90;;
11854;SDS011;5987;53.140;8.904;2023-08-20T03:02:58;3.03;;;2.20;;
11854;SDS011;5987;53.140;8.904;2023-08-20T03:06:04;2.67;;;2.47;;
11854;SDS011;5987;53.140;8.904;2023-08-20T03:09:07;2.30;;;2.10;;
11854;SDS011;5987;53.140;8.904;2023-08-20T03:12:11;2.17;;;1.90;;
11854;SDS011;5987;53.140;8.904;2023-08-20T03:15:15;2.47;;;2.13;;
11854;SDS011;5987;53.140;8.904;2023-08-20T03:18:20;2.20;;;1.90;;
11854;SDS011;5987;53.140;8.904;2023-08-20T03:21:24;2.23;;;1.80;;
11854;SDS011;5987;53.140;8.904;2023-08-20T03:24:28;2.20;;;2.00;;
11854;SDS011;5987;53.140;8.904;2023-08-20T03:27:31;3.47;;;2.27;;
11854;SDS011;5987;53.140;8.904;2023-08-20T03:30:36;2.53;;;1.97;;
11854;SDS011;5987;53.140;8.904;2023-08-20T03:33:41;2.57;;;2.10;;
11854;SDS011;5987;53.140;8.904;2023-08-20T03:36:45;1.87;;;1.77;;
11854;SDS011;5987;53.140;8.904;2023-08-20T03:39:48;3.20;;;2.07;;
11854;SDS011;5987;53.140;8.904;2023-08-20T03:42:52;2.07;;;1.80;;
11854;SDS011;5987;53.140;8.904;2023-08-20T03:45:56;2.33;;;1.93;;
11854;SDS011;5987;53.140;8.904;2023-08-20T03:49:01;2.63;;;2.20;;
11854;SDS011;5987;53.140;8.904;2023-08-20T03:52:05;3.00;;;1.93;;
11854;SDS011;5987;53.140;8.904;2023-08-20T03:55:09;3.57;;;1.80;;
11854;SDS011;5987;53.140;8.904;2023-08-20T03:58:13;4.73;;;2.47;;
11854;SDS011;5987;53.140;8.904;2023-08-20T04:01:16;3.10;;;2.47;;
11854;SDS011;5987;53.140;8.904;2023-08-20T04:04:21;4.67;;;2.60;;
11854;SDS011;5987;53.140;8.904;2023-08-20T04:07:25;3.10;;;2.37;;
11854;SDS011;5987;53.140;8.904;2023-08-20T04:10:29;2.60;;;2.20;;
11854;SDS011;5987;53.140;8.904;2023-08-20T04:13:33;4.07;;;2.63;;
11854;SDS011;5987;53.140;8.904;2023-08-20T04:16:36;4.33;;;2.87;;
11854;SDS011;5987;53.140;8.904;2023-08-20T04:19:41;4.10;;;3.10;;
11854;SDS011;5987;53.140;8.904;2023-08-20T04:22:45;4.80;;;2.60;;
11854;SDS011;5987;53.140;8.904;2023-08-20T04:25:49;4.73;;;2.33;;
11854;SDS011;5987;53.140;8.904;2023-08-20T04:28:52;2.63;;;2.27;;
11854;SDS011;5987;53.140;8.904;2023-08-20T04:31:56;2.87;;;2.27;;
11854;SDS011;5987;53.140;8.904;2023-08-20T04:35:01;3.07;;;2.47;;
11854;SDS011;5987;53.140;8.904;2023-08-20T04:38:05;6.70;;;2.93;;
11854;SDS011;5987;53.140;8.904;2023-08-20T04:41:09;2.10;;;1.90;;
11854;SDS011;5987;53.140;8.904;2023-08-20T04:44:13;4.20;;;3.07;;
11854;SDS011;5987;53.140;8.904;2023-08-20T04:47:17;8.03;;;3.20;;
11854;SDS011;5987;53.140;8.904;2023-08-20T04:50:23;9.00;;;3.33;;
11854;SDS011;5987;53.140;8.904;2023-08-20T04:53:26;5.43;;;3.43;;
11854;SDS011;5987;53.140;8.904;2023-08-20T04:56:30;6.23;;;4.00;;
11854;SDS011;5987;53.140;8.904;2023-08-20T04:59:34;5.00;;;4.10;;
11854;SDS011;5987;53.140;8.904;2023-08-20T05:02:37;6.57;;;4.13;;
11854;SDS011;5987;53.140;8.904;2023-08-20T05:05:47;9.13;;;4.30;;
11854;SDS011;5987;53.140;8.904;2023-08-20T05:08:52;4.33;;;3.87;;
11854;SDS011;5987;53.140;8.904;2023-08-20T05:11:55;5.80;;;3.63;;
11854;SDS011;5987;53.140;8.904;2023-08-20T05:14:59;6.03;;;4.00;;
11854;SDS011;5987;53.140;8.904;2023-08-20T05:18:03;5.20;;;3.87;;
11854;SDS011;5987;53.140;8.904;2023-08-20T05:21:08;4.70;;;3.83;;
11854;SDS011;5987;53.140;8.904;2023-08-20T05:24:14;4.13;;;3.17;;
11854;SDS011;5987;53.140;8.904;2023-08-20T05:27:19;6.20;;;3.10;;
11854;SDS011;5987;53.140;8.904;2023-08-20T05:30:22;3.23;;;2.93;;
11854;SDS011;5987;53.140;8.904;2023-08-20T05:33:27;6.50;;;3.63;;
11854;SDS011;5987;53.140;8.904;2023-08-20T05:36:32;5.87;;;4.13;;
11854;SDS011;5987;53.140;8.904;2023-08-20T05:39:36;4.20;;;3.30;;
11854;SDS011;5987;53.140;8.904;2023-08-20T05:42:43;6.30;;;3.63;;
11854;SDS011;5987;53.140;8.904;2023-08-20T05:45:47;5.87;;;3.40;;
11854;SDS011;5987;53.140;8.904;2023-08-20T05:48:51;6.10;;;4.13;;
11854;SDS011;5987;53.140;8.904;2023-08-20T05:51:56;5.57;;;3.70;;
11854;SDS011;5987;53.140;8.904;2023-08-20T05:54:59;6.67;;;4.93;;
11854;SDS011;5987;53.140;8.904;2023-08-20T05:58:06;7.20;;;4.10;;
11854;SDS011;5987;53.140;8.904;2023-08-20T06:01:09;8.33;;;5.53;;
11854;SDS011;5987;53.140;8.904;2023-08-20T06:04:13;7.33;;;4.77;;
11854;SDS011;5987;53.140;8.904;2023-08-20T06:07:18;12.90;;;6.07;;
11854;SDS011;5987;53.140;8.904;2023-08-20T06:10:22;8.40;;;5.50;;
11854;SDS011;5987;53.140;8.904;2023-08-20T06:13:26;12.60;;;6.63;;
11854;SDS011;5987;53.140;8.904;2023-08-20T06:16:29;10.83;;;5.67;;
11854;SDS011;5987;53.140;8.904;2023-08-20T06:19:33;10.23;;;6.13;;
11854;SDS011;5987;53.140;8.904;2023-08-20T06:22:41;9.17;;;6.27;;
11854;SDS011;5987;53.140;8.904;2023-08-20T06:25:44;7.10;;;5.67;;
11854;SDS011;5987;53.140;8.904;2023-08-20T06:28:48;8.30;;;5.67;;
11854;SDS011;5987;53.140;8.904;2023-08-20T06:31:52;7.87;;;5.20;;
11854;SDS011;5987;53.140;8.904;2023-08-20T06:34:55;14.53;;;6.40;;
11854;SDS011;5987;53.140;8.904;2023-08-20T06:38:01;9.33;;;5.23;;
11854;SDS011;5987;53.140;8.904;2023-08-20T06:41:05;10.30;;;5.90;;
11854;SDS011;5987;53.140;8.904;2023-08-20T06:44:09;10.70;;;5.87;;
11854;SDS011;5987;53.140;8.904;2023-08-20T06:47:12;10.00;;;6.03;;
11854;SDS011;5987;53.140;8.904;2023-08-20T06:50:16;9.43;;;4.83;;
11854;SDS011;5987;53.140;8.904;2023-08-20T06:53:22;10.03;;;5.20;;
11854;SDS011;5987;53.140;8.904;2023-08-20T06:56:25;12.03;;;4.33;;
11854;SDS011;5987;53.140;8.904;2023-08-20T06:59:30;5.67;;;3.67;;
11854;SDS011;5987;53.140;8.904;2023-08-20T07:02:33;9.80;;;3.77;;
11854;SDS011;5987;53.140;8.904;2023-08-20T07:05:37;6.07;;;3.70;;
11854;SDS011;5987;53.140;8.904;2023-08-20T07:08:42;6.00;;;2.70;;
11854;SDS011;5987;53.140;8.904;2023-08-20T07:11:46;8.63;;;3.30;;
11854;SDS011;5987;53.140;8.904;2023-08-20T07:14:50;3.83;;;2.73;;
11854;SDS011;5987;53.140;8.904;2023-08-20T07:17:53;6.13;;;2.60;;
11854;SDS011;5987;53.140;8.904;2023-08-20T07:20:57;5.53;;;2.43;;
11854;SDS011;5987;53.140;8.904;2023-08-20T07:24:02;4.23;;;2.33;;
11854;SDS011;5987;53.140;8.904;2023-08-20T07:27:07;2.47;;;1.80;;
11854;SDS011;5987;53.140;8.904;2023-08-20T07:30:14;6.10;;;2.03;;
11854;SDS011;5987;53.140;8.904;2023-08-20T07:33:17;3.97;;;2.20;;
11854;SDS011;5987;53.140;8.904;2023-08-20T07:36:21;5.23;;;2.53;;
11854;SDS011;5987;53.140;8.904;2023-08-20T07:39:27;3.07;;;1.80;;
11854;SDS011;5987;53.140;8.904;2023-08-20T07:42:31;9.73;;;2.47;;
11854;SDS011;5987;53.140;8.904;2023-08-20T07:45:35;5.30;;;1.70;;
11854;SDS011;5987;53.140;8.904;2023-08-20T07:48:39;6.20;;;1.83;;
11854;SDS011;5987;53.140;8.904;2023-08-20T07:51:42;6.67;;;1.73;;
11854;SDS011;5987;53.140;8.904;2023-08-20T07:54:48;5.03;;;1.40;;
11854;SDS011;5987;53.140;8.904;2023-08-20T07:57:51;3.57;;;1.40;;
11854;SDS011;5987;53.140;8.904;2023-08-20T08:00:55;10.37;;;2.60;;
11854;SDS011;5987;53.140;8.904;2023-08-20T08:04:00;1.80;;;1.30;;
11854;SDS011;5987;53.140;8.904;2023-08-20T08:07:03;2.73;;;1.53;;
11854;SDS011;5987;53.140;8.904;2023-08-20T08:10:09;3.73;;;1.60;;
11854;SDS011;5987;53.140;8.904;2023-08-20T08:13:14;3.43;;;1.40;;
11854;SDS011;5987;53.140;8.904;2023-08-20T08:16:23;5.37;;;1.27;;
11854;SDS011;5987;53.140;8.904;2023-08-20T08:19:27;3.90;;;1.83;;
11854;SDS011;5987;53.140;8.904;2023-08-20T08:22:30;3.17;;;1.60;;
11854;SDS011;5987;53.140;8.904;2023-08-20T08:25:35;4.87;;;1.73;;
11854;SDS011;5987;53.140;8.904;2023-08-20T08:28:39;3.53;;;1.70;;
11854;SDS011;5987;53.140;8.904;2023-08-20T08:31:43;8.13;;;2.00;;
11854;SDS011;5987;53.140;8.904;2023-08-20T08:34:47;3.37;;;1.87;;
11854;SDS011;5987;53.140;8.904;2023-08-20T08:37:50;2.93;;;1.30;;
11854;SDS011;5987;53.140;8.904;2023-08-20T08:40:56;4.37;;;1.70;;
11854;SDS011;5987;53.140;8.904;2023-08-20T08:44:02;7.53;;;1.53;;
11854;SDS011;5987;53.140;8.904;2023-08-20T08:47:08;3.80;;;2.07;;
11854;SDS011;5987;53.140;8.904;2023-08-20T08:50:13;4.93;;;2.20;;
11854;SDS011;5987;53.140;8.904;2023-08-20T08:53:17;3.50;;;1.50;;
11854;SDS011;5987;53.140;8.904;2023-08-20T08:56:23;3.90;;;1.70;;
11854;SDS011;5987;53.140;8.904;2023-08-20T08:59:27;3.23;;;1.50;;
11854;SDS011;5987;53.140;8.904;2023-08-20T09:02:30;4.47;;;1.57;;
11854;SDS011;5987;53.140;8.904;2023-08-20T09:05:45;2.53;;;1.80;;
11854;SDS011;5987;53.140;8.904;2023-08-20T09:08:50;5.50;;;1.93;;
11854;SDS011;5987;53.140;8.904;2023-08-20T09:12:13;6.47;;;2.30;;
11854;SDS011;5987;53.140;8.904;2023-08-20T09:15:32;4.90;;;1.87;;
11854;SDS011;5987;53.140;8.904;2023-08-20T09:18:40;5.97;;;2.47;;
11854;SDS011;5987;53.140;8.904;2023-08-20T09:21:46;3.87;;;1.67;;
11854;SDS011;5987;53.140;8.904;2023-08-20T09:24:54;4.10;;;2.10;;
11854;SDS011;5987;53.140;8.904;2023-08-20T09:28:03;6.10;;;2.07;;
11854;SDS011;5987;53.140;8.904;2023-08-20T09:31:08;6.30;;;2.63;;
11854;SDS011;5987;53.140;8.904;2023-08-20T09:34:12;5.10;;;2.50;;
11854;SDS011;5987;53.140;8.904;2023-08-20T09:37:17;5.57;;;2.77;;
11854;SDS011;5987;53.140;8.904;2023-08-20T09:40:23;2.97;;;2.27;;
11854;SDS011;5987;53.140;8.904;2023-08-20T09:43:28;3.93;;;2.10;;
11854;SDS011;5987;53.140;8.904;2023-08-20T09:46:36;6.27;;;2.30;;
11854;SDS011;5987;53.140;8.904;2023-08-20T09:49:41;4.57;;;2.23;;
11854;SDS011;5987;53.140;8.904;2023-08-20T09:52:48;6.93;;;2.67;;
11854;SDS011;5987;53.140;8.904;2023-08-20T09:56:03;5.73;;;1.90;;
11854;SDS011;5987;53.140;8.904;2023-08-20T09:59:14;6.93;;;2.77;;
11854;SDS011;5987;53.140;8.904;2023-08-20T10:02:19;2.93;;;1.90;;
11854;SDS011;5987;53.140;8.904;2023-08-20T10:05:24;5.00;;;2.53;;
11854;SDS011;5987;53.140;8.904;2023-08-20T10:08:29;6.83;;;2.93;;
11854;SDS011;5987;53.140;8.904;2023-08-20T10:11:33;5.10;;;2.63;;
11854;SDS011;5987;53.140;8.904;2023-08-20T10:14:40;4.57;;;2.77;;
11854;SDS011;5987;53.140;8.904;2023-08-20T10:17:44;8.30;;;2.93;;
11854;SDS011;5987;53.140;8.904;2023-08-20T10:20:49;5.43;;;2.73;;
11854;SDS011;5987;53.140;8.904;2023-08-20T10:23:53;7.90;;;3.13;;
11854;SDS011;5987;53.140;8.904;2023-08-20T10:27:06;7.10;;;3.00;;
11854;SDS011;5987;53.140;8.904;2023-08-20T10:30:18;5.33;;;4.57;;
11854;SDS011;5987;53.140;8.904;2023-08-20T10:33:27;5.17;;;2.83;;
11854;SDS011;5987;53.140;8.904;2023-08-20T10:36:31;5.93;;;2.40;;
11854;SDS011;5987;53.140;8.904;2023-08-20T10:39:50;9.73;;;7.03;;
11854;SDS011;5987;53.140;8.904;2023-08-20T10:43:01;6.40;;;5.40;;
11854;SDS011;5987;53.140;8.904;2023-08-20T10:46:17;7.67;;;5.03;;
11854;SDS011;5987;53.140;8.904;2023-08-20T10:49:22;8.20;;;3.27;;
11854;SDS011;5987;53.140;8.904;2023-08-20T10:52:26;8.70;;;3.73;;
11854;SDS011;5987;53.140;8.904;2023-08-20T10:55:30;12.63;;;4.03;;
11854;SDS011;5987;53.140;8.904;2023-08-20T10:58:34;8.83;;;3.57;;
11854;SDS011;5987;53.140;8.904;2023-08-20T11:01:43;5.93;;;3.87;;
11854;SDS011;5987;53.140;8.904;2023-08-20T11:04:48;4.33;;;3.53;;
11854;SDS011;5987;53.140;8.904;2023-08-20T11:07:52;7.50;;;4.87;;
11854;SDS011;5987;53.140;8.904;2023-08-20T11:10:56;7.40;;;5.03;;
11854;SDS011;5987;53.140;8.904;2023-08-20T11:14:04;11.03;;;5.20;;
11854;SDS011;5987;53.140;8.904;2023-08-20T11:17:11;10.17;;;5.43;;
11854;SDS011;5987;53.140;8.904;2023-08-20T11:20:15;5.60;;;4.73;;
11854;SDS011;5987;53.140;8.904;2023-08-20T11:23:21;6.27;;;4.90;;
11854;SDS011;5987;53.140;8.904;2023-08-20T11:26:38;7.80;;;3.97;;
11854;SDS011;5987;53.140;8.904;2023-08-20T11:29:43;6.30;;;4.20;;
11854;SDS011;5987;53.140;8.904;2023-08-20T11:32:52;7.87;;;4.20;;
11854;SDS011;5987;53.140;8.904;2023-08-20T11:35:57;8.83;;;3.87;;
11854;SDS011;5987;53.140;8.904;2023-08-20T11:39:01;6.97;;;3.73;;
11854;SDS011;5987;53.140;8.904;2023-08-20T11:42:06;4.53;;;3.70;;
11854;SDS011;5987;53.140;8.904;2023-08-20T11:45:20;7.17;;;3.00;;
11854;SDS011;5987;53.140;8.904;2023-08-20T11:48:26;4.37;;;3.33;;
11854;SDS011;5987;53.140;8.904;2023-08-20T11:51:35;3.93;;;3.20;;
11854;SDS011;5987;53.140;8.904;2023-08-20T11:54:41;5.10;;;3.07;;
11854;SDS011;5987;53.140;8.904;2023-08-20T11:57:49;5.87;;;3.17;;
11854;SDS011;5987;53.140;8.904;2023-08-20T12:00:54;3.53;;;2.80;;
11854;SDS011;5987;53.140;8.904;2023-08-20T12:04:04;6.13;;;2.93;;
11854;SDS011;5987;53.140;8.904;2023-08-20T12:07:13;5.53;;;3.07;;
11854;SDS011;5987;53.140;8.904;2023-08-20T12:10:20;2.77;;;2.50;;
11854;SDS011;5987;53.140;8.904;2023-08-20T12:13:26;3.93;;;2.40;;
11854;SDS011;5987;53.140;8.904;2023-08-20T12:16:31;5.83;;;2.40;;
11854;SDS011;5987;53.140;8.904;2023-08-20T12:19:37;9.17;;;2.50;;
11854;SDS011;5987;53.140;8.904;2023-08-20T12:22:41;2.60;;;2.20;;
11854;SDS011;5987;53.140;8.904;2023-08-20T12:25:49;4.10;;;1.90;;
11854;SDS011;5987;53.140;8.904;2023-08-20T12:28:53;4.30;;;2.13;;
11854;SDS011;5987;53.140;8.904;2023-08-20T12:31:57;4.93;;;2.50;;
11854;SDS011;5987;53.140;8.904;2023-08-20T12:35:03;7.63;;;2.77;;
11854;SDS011;5987;53.140;8.904;2023-08-20T12:38:08;3.53;;;2.57;;
11854;SDS011;5987;53.140;8.904;2023-08-20T12:41:12;3.67;;;2.30;;
11854;SDS011;5987;53.140;8.904;2023-08-20T12:44:19;4.60;;;2.70;;
11854;SDS011;5987;53.140;8.904;2023-08-20T12:47:23;6.97;;;2.93;;
11854;SDS011;5987;53.140;8.904;2023-08-20T12:50:29;4.07;;;2.10;;
11854;SDS011;5987;53.140;8.904;2023-08-20T12:53:33;2.17;;;1.60;;
11854;SDS011;5987;53.140;8.904;2023-08-20T12:56:40;4.97;;;1.83;;
11854;SDS011;5987;53.140;8.904;2023-08-20T12:59:45;3.00;;;2.00;;
11854;SDS011;5987;53.140;8.904;2023-08-20T13:02:49;5.30;;;2.67;;
11854;SDS011;5987;53.140;8.904;2023-08-20T13:05:57;6.63;;;2.60;;
11854;SDS011;5987;53.140;8.904;2023-08-20T13:09:01;6.20;;;2.53;;
11854;SDS011;5987;53.140;8.904;2023-08-20T13:12:07;3.90;;;2.30;;
11854;SDS011;5987;53.140;8.904;2023-08-20T13:15:15;4.30;;;2.37;;
11854;SDS011;5987;53.140;8.904;2023-08-20T13:18:20;4.20;;;2.50;;
11854;SDS011;5987;53.140;8.904;2023-08-20T13:21:28;7.93;;;2.90;;
11854;SDS011;5987;53.140;8.904;2023-08-20T13:24:32;6.53;;;2.20;;
11854;SDS011;5987;53.140;8.904;2023-08-20T13:27:36;4.17;;;1.90;;
11854;SDS011;5987;53.140;8.904;2023-08-20T13:30:40;4.23;;;2.23;;
11854;SDS011;5987;53.140;8.904;2023-08-20T13:33:44;4.80;;;1.80;;
11854;SDS011;5987;53.140;8.904;2023-08-20T13:36:49;3.47;;;1.90;;
11854;SDS011;5987;53.140;8.904;2023-08-20T13:39:53;4.37;;;1.93;;
11854;SDS011;5987;53.140;8.904;2023-08-20T13:42:57;2.27;;;1.77;;
11854;SDS011;5987;53.140;8.904;2023-08-20T13:46:01;3.33;;;1.80;;
11854;SDS011;5987;53.140;8.904;2023-08-20T13:49:05;3.77;;;1.80;;
11854;SDS011;5987;53.140;8.904;2023-08-20T13:52:11;3.67;;;2.17;;
11854;SDS011;5987;53.140;8.904;2023-08-20T13:55:15;3.83;;;2.20;;
11854;SDS011;5987;53.140;8.904;2023-08-20T13:58:19;4.77;;;2.10;;
11854;SDS011;5987;53.140;8.904;2023-08-20T14:01:23;2.40;;;1.77;;
11854;SDS011;5987;53.140;8.904;2023-08-20T14:04:28;3.57;;;1.90;;
11854;SDS011;5987;53.140;8.904;2023-08-20T14:07:33;4.67;;;2.40;;
11854;SDS011;5987;53.140;8.904;2023-08-20T14:10:38;2.93;;;1.80;;
11854;SDS011;5987;53.140;8.904;2023-08-20T14:13:41;2.77;;;1.60;;
11854;SDS011;5987;53.140;8.904;2023-08-20T14:16:46;2.27;;;1.40;;
11854;SDS011;5987;53.140;8.904;2023-08-20T14:19:50;3.97;;;1.53;;
11854;SDS011;5987;53.140;8.904;2023-08-20T14:22:56;7.63;;;4.97;;
11854;SDS011;5987;53.140;8.904;2023-08-20T14:26:00;3.50;;;1.73;;
11854;SDS011;5987;53.140;8.904;2023-08-20T14:29:04;3.57;;;1.83;;
11854;SDS011;5987;53.140;8.904;2023-08-20T14:32:08;5.53;;;1.63;;
11854;SDS011;5987;53.140;8.904;2023-08-20T14:35:12;3.47;;;1.70;;
11854;SDS011;5987;53.140;8.904;2023-08-20T14:38:18;5.10;;;2.03;;
11854;SDS011;5987;53.140;8.904;2023-08-20T14:41:21;3.77;;;1.40;;
11854;SDS011;5987;53.140;8.904;2023-08-20T14:44:26;3.97;;;1.53;;
11854;SDS011;5987;53.140;8.904;2023-08-20T14:47:30;1.47;;;1.23;;
11854;SDS011;5987;53.140;8.904;2023-08-20T14:50:34;3.57;;;1.70;;
11854;SDS011;5987;53.140;8.904;2023-08-20T14:53:39;5.93;;;1.93;;
11854;SDS011;5987;53.140;8.904;2023-08-20T14:56:43;2.17;;;1.37;;
11854;SDS011;5987;53.140;8.904;2023-08-20T14:59:47;2.97;;;1.30;;
11854;SDS011;5987;53.140;8.904;2023-08-20T15:02:50;1.93;;;1.70;;
11854;SDS011;5987;53.140;8.904;2023-08-20T15:05:54;3.50;;;1.30;;
11854;SDS011;5987;53.140;8.904;2023-08-20T15:09:00;4.13;;;1.50;;
11854;SDS011;5987;53.140;8.904;2023-08-20T15:12:05;1.93;;;1.37;;
11854;SDS011;5987;53.140;8.904;2023-08-20T15:15:09;3.80;;;1.70;;
11854;SDS011;5987;53.140;8.904;2023-08-20T15:18:13;4.27;;;1.60;;
11854;SDS011;5987;53.140;8.904;2023-08-20T15:21:16;2.50;;;1.40;;
11854;SDS011;5987;53.140;8.904;2023-08-20T15:24:22;1.93;;;1.23;;
11854;SDS011;5987;53.140;8.904;2023-08-20T15:27:25;1.50;;;1.20;;
11854;SDS011;5987;53.140;8.904;2023-08-20T15:30:30;4.43;;;1.40;;
11854;SDS011;5987;53.140;8.904;2023-08-20T15:33:35;5.07;;;1.83;;
11854;SDS011;5987;53.140;8.904;2023-08-20T15:36:38;1.90;;;1.27;;
11854;SDS011;5987;53.140;8.904;2023-08-20T15:39:43;4.13;;;1.30;;
11854;SDS011;5987;53.140;8.904;2023-08-20T15:42:47;1.03;;;0.80;;
11854;SDS011;5987;53.140;8.904;2023-08-20T15:45:51;3.70;;;1.13;;
11854;SDS011;5987;53.140;8.904;2023-08-20T15:48:55;1.97;;;0.87;;
11854;SDS011;5987;53.140;8.904;2023-08-20T15:52:00;5.83;;;1.00;;
11854;SDS011;5987;53.140;8.904;2023-08-20T15:55:06;2.30;;;1.10;;
11854;SDS011;5987;53.140;8.904;2023-08-20T15:58:12;3.60;;;1.10;;
11854;SDS011;5987;53.140;8.904;2023-08-20T16:01:16;4.40;;;1.00;;
11854;SDS011;5987;53.140;8.904;2023-08-20T16:04:20;0.60;;;0.60;;
11854;SDS011;5987;53.140;8.904;2023-08-20T16:07:24;1.10;;;1.00;;
11854;SDS011;5987;53.140;8.904;2023-08-20T16:10:29;3.27;;;0.90;;
11854;SDS011;5987;53.140;8.904;2023-08-20T16:13:34;1.17;;;0.73;;
11854;SDS011;5987;53.140;8.904;2023-08-20T16:16:37;2.60;;;1.10;;
11854;SDS011;5987;53.140;8.904;2023-08-20T16:19:41;2.97;;;1.10;;
11854;SDS011;5987;53.140;8.904;2023-08-20T16:22:45;2.87;;;1.00;;
11854;SDS011;5987;53.140;8.904;2023-08-20T16:25:50;2.53;;;0.90;;
11854;SDS011;5987;53.140;8.904;2023-08-20T16:28:55;1.30;;;0.83;;
11854;SDS011;5987;53.140;8.904;2023-08-20T16:31:59;2.13;;;0.83;;
11854;SDS011;5987;53.140;8.904;2023-08-20T16:35:04;3.00;;;0.70;;
11854;SDS011;5987;53.140;8.904;2023-08-20T16:38:09;1.37;;;0.87;;
11854;SDS011;5987;53.140;8.904;2023-08-20T16:41:14;1.37;;;0.67;;
11854;SDS011;5987;53.140;8.904;2023-08-20T16:44:18;1.37;;;0.60;;
11854;SDS011;5987;53.140;8.904;2023-08-20T16:47:22;0.77;;;0.60;;
11854;SDS011;5987;53.140;8.904;2023-08-20T16:50:26;2.30;;;0.63;;
11854;SDS011;5987;53.140;8.904;2023-08-20T16:53:31;0.43;;;0.40;;
11854;SDS011;5987;53.140;8.904;2023-08-20T16:56:37;0.83;;;0.50;;
11854;SDS011;5987;53.140;8.904;2023-08-20T16:59:41;3.03;;;0.60;;
11854;SDS011;5987;53.140;8.904;2023-08-20T17:02:45;1.07;;;0.47;;
11854;SDS011;5987;53.140;8.904;2023-08-20T17:05:57;0.97;;;0.53;;
11854;SDS011;5987;53.140;8.904;2023-08-20T17:09:03;1.23;;;0.40;;
11854;SDS011;5987;53.140;8.904;2023-08-20T17:12:08;0.73;;;0.53;;
11854;SDS011;5987;53.140;8.904;2023-08-20T17:15:32;4.27;;;0.60;;
11854;SDS011;5987;53.140;8.904;2023-08-20T17:18:37;1.27;;;0.60;;
11854;SDS011;5987;53.140;8.904;2023-08-20T17:21:41;1.77;;;0.83;;
11854;SDS011;5987;53.140;8.904;2023-08-20T17:24:45;2.27;;;1.27;;
11854;SDS011;5987;53.140;8.904;2023-08-20T17:27:51;1.20;;;0.90;;
11854;SDS011;5987;53.140;8.904;2023-08-20T17:30:54;0.83;;;0.77;;
11854;SDS011;5987;53.140;8.904;2023-08-20T17:33:58;3.20;;;0.87;;
11854;SDS011;5987;53.140;8.904;2023-08-20T17:37:02;2.83;;;0.53;;
11854;SDS011;5987;53.140;8.904;2023-08-20T17:40:07;1.77;;;0.60;;
11854;SDS011;5987;53.140;8.904;2023-08-20T17:43:13;1.17;;;0.50;;
11854;SDS011;5987;53.140;8.904;2023-08-20T17:46:18;1.77;;;0.70;;
11854;SDS011;5987;53.140;8.904;2023-08-20T17:49:22;1.87;;;0.73;;
11854;SDS011;5987;53.140;8.904;2023-08-20T17:52:26;3.43;;;1.17;;
11854;SDS011;5987;53.140;8.904;2023-08-20T17:55:30;1.80;;;0.80;;
11854;SDS011;5987;53.140;8.904;2023-08-20T17:58:37;4.10;;;0.77;;
11854;SDS011;5987;53.140;8.904;2023-08-20T18:01:41;3.20;;;1.00;;
11854;SDS011;5987;53.140;8.904;2023-08-20T18:04:45;2.83;;;0.70;;
11854;SDS011;5987;53.140;8.904;2023-08-20T18:07:53;3.13;;;1.10;;
11854;SDS011;5987;53.140;8.904;2023-08-20T18:10:57;2.00;;;1.40;;
11854;SDS011;5987;53.140;8.904;2023-08-20T18:14:02;1.03;;;0.70;;
11854;SDS011;5987;53.140;8.904;2023-08-20T18:17:06;2.63;;;0.80;;
11854;SDS011;5987;53.140;8.904;2023-08-20T18:20:10;0.97;;;0.50;;
11854;SDS011;5987;53.140;8.904;2023-08-20T18:23:16;2.97;;;0.80;;
11854;SDS011;5987;53.140;8.904;2023-08-20T18:26:21;8.10;;;3.90;;
11854;SDS011;5987;53.140;8.904;2023-08-20T18:29:26;2.37;;;1.03;;
11854;SDS011;5987;53.140;8.904;2023-08-20T18:32:30;1.83;;;0.73;;
11854;SDS011;5987;53.140;8.904;2023-08-20T18:35:34;2.07;;;1.10;;
11854;SDS011;5987;53.140;8.904;2023-08-20T18:38:39;0.93;;;0.87;;
11854;SDS011;5987;53.140;8.904;2023-08-20T18:41:43;4.90;;;1.03;;
11854;SDS011;5987;53.140;8.904;2023-08-20T18:44:48;3.80;;;1.13;;
11854;SDS011;5987;53.140;8.904;2023-08-20T18:47:52;4.13;;;1.33;;
11854;SDS011;5987;53.140;8.904;2023-08-20T18:50:56;3.17;;;1.20;;
11854;SDS011;5987;53.140;8.904;2023-08-20T18:54:00;4.53;;;1.37;;
11854;SDS011;5987;53.140;8.904;2023-08-20T18:57:05;3.93;;;1.20;;